createdAt,value
2019-02-20T00:01:30.477Z,11.40
2019-02-20T00:03:58.298Z,11.28
2019-02-20T00:06:26.126Z,10.40
2019-02-20T00:08:53.927Z,11.60
2019-02-20T00:11:21.724Z,12.00
2019-02-20T00:13:49.543Z,13.48
2019-02-20T00:16:17.347Z,13.98
2019-02-20T00:18:45.183Z,12.73
2019-02-20T00:21:43.705Z,12.25
2019-02-20T00:24:11.514Z,12.13
2019-02-20T00:26:39.301Z,12.68
2019-02-20T00:30:12.873Z,11.68
2019-02-20T00:32:40.671Z,10.25
2019-02-20T00:35:08.514Z,12.63
2019-02-20T00:37:36.309Z,12.30
2019-02-20T00:40:28.679Z,11.08
2019-02-20T00:42:56.450Z,10.60
2019-02-20T00:45:42.728Z,10.93
2019-02-20T00:48:28.739Z,11.85
2019-02-20T00:51:08.789Z,10.18
2019-02-20T00:53:42.367Z,9.15
2019-02-20T00:56:10.188Z,11.30
2019-02-20T00:58:38.060Z,12.23
2019-02-20T01:01:05.820Z,10.30
2019-02-20T01:03:33.626Z,10.60
2019-02-20T01:06:04.912Z,13.83
2019-02-20T01:08:33.014Z,11.08
2019-02-20T01:11:00.806Z,10.95
2019-02-20T01:13:28.631Z,11.50
2019-02-20T01:15:57.511Z,12.50
2019-02-20T01:18:25.281Z,10.33
2019-02-20T01:20:53.106Z,10.80
2019-02-20T01:23:20.885Z,12.57
2019-02-20T01:25:48.719Z,13.37
2019-02-20T01:28:16.585Z,11.67
2019-02-20T01:30:44.747Z,9.50
2019-02-20T01:33:12.581Z,14.70
2019-02-20T01:35:40.377Z,10.93
2019-02-20T01:38:08.217Z,12.47
2019-02-20T01:40:51.118Z,10.80
2019-02-20T01:43:18.899Z,13.93
2019-02-20T01:45:46.730Z,14.97
2019-02-20T01:48:15.686Z,15.03
2019-02-20T01:50:43.548Z,11.83
2019-02-20T01:53:11.379Z,10.60
2019-02-20T01:55:39.151Z,12.53
2019-02-20T01:58:06.979Z,11.20
2019-02-20T02:00:34.802Z,11.43
2019-02-20T02:03:02.581Z,13.07
2019-02-20T02:05:30.413Z,10.33
2019-02-20T02:07:58.261Z,11.33
2019-02-20T02:10:41.273Z,13.73
2019-02-20T02:13:09.076Z,10.80
2019-02-20T02:15:36.938Z,11.33
2019-02-20T02:18:04.703Z,13.03
2019-02-20T02:20:32.492Z,12.73
2019-02-20T02:23:00.261Z,12.97
2019-02-20T02:25:28.061Z,15.97
2019-02-20T02:27:55.790Z,15.20
2019-02-20T02:30:23.641Z,14.60
2019-02-20T02:32:51.370Z,12.20
2019-02-20T02:35:19.157Z,12.80
2019-02-20T02:37:46.966Z,12.37
2019-02-20T02:40:14.772Z,13.97
2019-02-20T02:42:42.553Z,10.47
2019-02-20T02:45:10.355Z,14.17
2019-02-20T02:47:38.189Z,11.87
2019-02-20T02:50:06.602Z,15.27
2019-02-20T02:52:34.362Z,11.97
2019-02-20T02:55:02.126Z,12.13
2019-02-20T02:57:29.964Z,10.77
2019-02-20T03:00:03.390Z,11.43
2019-02-20T03:02:31.190Z,11.00
2019-02-20T03:04:58.993Z,7.73
2019-02-20T03:07:26.829Z,11.17
2019-02-20T03:09:54.635Z,10.27
2019-02-20T03:12:22.456Z,10.82
2019-02-20T03:14:50.211Z,11.53
2019-02-20T03:17:18.364Z,11.57
2019-02-20T03:19:51.188Z,11.07
2019-02-20T03:22:20.032Z,11.68
2019-02-20T03:24:47.833Z,11.23
2019-02-20T03:27:15.658Z,10.30
2019-02-20T03:29:43.459Z,12.10
2019-02-20T03:32:30.684Z,10.13
2019-02-20T03:34:58.437Z,9.60
2019-02-20T03:37:26.263Z,10.33
2019-02-20T03:39:54.042Z,10.80
2019-02-20T03:42:21.865Z,12.30
2019-02-20T03:44:49.683Z,9.83
2019-02-20T03:47:17.488Z,11.43
2019-02-20T03:49:45.343Z,13.30
2019-02-20T03:52:13.146Z,13.58
2019-02-20T03:54:40.992Z,14.97
2019-02-20T03:57:08.784Z,12.78
2019-02-20T03:59:36.671Z,10.57
2019-02-20T04:02:04.813Z,10.90
2019-02-20T04:04:32.642Z,9.05
2019-02-20T04:07:00.486Z,22.65
2019-02-20T04:09:33.552Z,10.48
2019-02-20T04:12:01.368Z,10.77
2019-02-20T04:14:29.203Z,9.18
2019-02-20T04:16:56.979Z,9.63
2019-02-20T04:19:24.836Z,7.80
2019-02-20T04:21:52.591Z,16.82
2019-02-20T04:24:20.367Z,11.55
2019-02-20T04:26:48.161Z,10.37
2019-02-20T04:29:16.230Z,10.83
2019-02-20T04:31:44.018Z,8.83
2019-02-20T04:34:11.824Z,8.00
2019-02-20T04:36:39.593Z,8.30
2019-02-20T04:39:12.537Z,8.53
2019-02-20T04:41:40.395Z,9.90
2019-02-20T04:44:08.276Z,9.10
2019-02-20T04:46:36.113Z,8.58
2019-02-20T04:49:03.948Z,9.10
2019-02-20T04:51:31.741Z,10.13
2019-02-20T04:53:59.557Z,9.60
2019-02-20T04:56:27.303Z,8.95
2019-02-20T04:58:58.762Z,9.20
2019-02-20T05:01:26.578Z,12.05
2019-02-20T05:03:54.386Z,12.33
2019-02-20T05:06:22.124Z,10.03
2019-02-20T05:08:49.929Z,16.07
2019-02-20T05:11:32.845Z,13.48
2019-02-20T05:14:20.075Z,14.60
2019-02-20T05:16:47.822Z,11.97
2019-02-20T05:19:15.805Z,9.43
2019-02-20T05:21:43.752Z,9.88
2019-02-20T05:24:11.547Z,12.13
2019-02-20T05:26:39.333Z,23.87
2019-02-20T05:29:07.110Z,20.97
2019-02-20T05:31:35.537Z,9.85
2019-02-20T05:34:03.324Z,10.28
2019-02-20T05:36:32.918Z,10.25
2019-02-20T05:39:00.943Z,12.60
2019-02-20T05:41:28.719Z,11.60
2019-02-20T05:43:56.547Z,17.07
2019-02-20T05:46:24.290Z,18.50
2019-02-20T05:48:52.125Z,14.57
2019-02-20T05:51:20.032Z,9.40
2019-02-20T05:53:47.850Z,12.35
2019-02-20T05:56:15.640Z,11.67
2019-02-20T05:58:43.448Z,10.93
2019-02-20T06:01:11.301Z,10.35
2019-02-20T06:03:39.084Z,12.78
2019-02-20T06:06:06.880Z,12.47
2019-02-20T06:08:34.758Z,12.58
2019-02-20T06:11:02.577Z,11.15
2019-02-20T06:13:30.394Z,10.63
2019-02-20T06:15:58.206Z,10.75
2019-02-20T06:18:26.016Z,10.28
2019-02-20T06:20:53.841Z,10.03
2019-02-20T06:23:23.703Z,10.03
2019-02-20T06:25:51.541Z,11.80
2019-02-20T06:28:19.358Z,10.30
2019-02-20T06:30:52.688Z,9.50
2019-02-20T06:33:20.506Z,10.18
2019-02-20T06:35:48.379Z,10.58
2019-02-20T06:38:16.213Z,10.65
2019-02-20T06:41:14.465Z,13.00
2019-02-20T06:43:42.226Z,16.10
2019-02-20T06:46:10.020Z,13.13
2019-02-20T06:48:37.788Z,11.37
2019-02-20T06:51:44.900Z,14.10
2019-02-20T06:54:12.713Z,12.60
2019-02-20T06:56:40.487Z,10.70
2019-02-20T06:59:08.296Z,7.33
2019-02-20T07:01:36.092Z,10.33
2019-02-20T07:04:03.866Z,9.25
2019-02-20T07:06:58.430Z,9.45
2019-02-20T07:10:33.364Z,10.38
2019-02-20T07:13:31.742Z,8.43
2019-02-20T07:16:58.131Z,8.37
2019-02-20T07:20:18.688Z,8.63
2019-02-20T07:23:35.510Z,8.70
2019-02-20T07:27:14.397Z,8.17
2019-02-20T07:30:09.841Z,7.03
2019-02-20T07:32:37.691Z,7.70
2019-02-20T07:35:08.446Z,8.77
2019-02-20T07:37:36.223Z,9.00
2019-02-20T07:40:05.703Z,8.70
2019-02-20T07:42:33.482Z,9.30
2019-02-20T07:45:01.304Z,10.93
2019-02-20T07:47:29.087Z,14.13
2019-02-20T07:49:56.913Z,12.33
2019-02-20T07:52:24.719Z,11.60
2019-02-20T07:54:52.537Z,11.00
2019-02-20T07:57:20.598Z,12.23
2019-02-20T07:59:48.378Z,11.87
2019-02-20T08:02:16.168Z,11.83
2019-02-20T08:04:45.805Z,13.13
2019-02-20T08:07:13.694Z,13.50
2019-02-20T08:09:41.442Z,13.00
2019-02-20T08:12:09.241Z,11.70
2019-02-20T08:14:37.054Z,10.50
2019-02-20T08:17:04.926Z,10.60
2019-02-20T08:19:32.746Z,11.13
2019-02-20T08:22:00.561Z,12.43
2019-02-20T08:24:28.362Z,12.60
2019-02-20T08:26:56.118Z,9.87
2019-02-20T08:29:24.027Z,10.97
2019-02-20T08:31:53.871Z,10.73
2019-02-20T08:34:21.580Z,14.60
2019-02-20T08:36:49.399Z,9.67
2019-02-20T08:39:22.285Z,9.80
2019-02-20T08:41:50.078Z,10.07
2019-02-20T08:44:17.874Z,11.13
2019-02-20T08:46:45.679Z,11.33
2019-02-20T08:49:13.579Z,10.57
2019-02-20T08:51:43.397Z,12.03
2019-02-20T08:54:11.213Z,12.80
2019-02-20T08:56:39.178Z,11.43
2019-02-20T08:59:07.064Z,13.17
2019-02-20T09:01:34.899Z,15.53
2019-02-20T09:04:02.715Z,11.43
2019-02-20T09:06:30.513Z,11.60
2019-02-20T09:08:58.328Z,11.07
2019-02-20T09:11:26.137Z,10.97
2019-02-20T09:13:54.022Z,10.53
2019-02-20T09:16:21.865Z,12.00
2019-02-20T09:18:49.621Z,10.70
2019-02-20T09:21:17.437Z,9.97
2019-02-20T09:23:46.061Z,10.40
2019-02-20T09:26:13.832Z,10.77
2019-02-20T09:28:41.653Z,10.47
2019-02-20T09:31:09.513Z,13.00
2019-02-20T09:33:37.323Z,11.67
2019-02-20T09:36:05.116Z,11.80
2019-02-20T09:38:32.910Z,11.83
2019-02-20T09:41:00.730Z,12.30
2019-02-20T09:43:28.583Z,13.87
2019-02-20T09:45:56.395Z,15.03
2019-02-20T09:48:26.297Z,17.10
2019-02-20T09:50:54.173Z,16.20
2019-02-20T09:53:21.954Z,14.50
2019-02-20T09:55:51.880Z,11.40
2019-02-20T09:58:19.421Z,10.23
2019-02-20T10:00:47.220Z,9.70
2019-02-20T10:03:15.034Z,9.83
2019-02-20T10:05:42.821Z,9.17
2019-02-20T10:08:10.583Z,8.80
2019-02-20T10:10:38.371Z,8.43
2019-02-20T10:13:06.146Z,9.67
2019-02-20T10:15:33.924Z,9.67
2019-02-20T10:18:01.750Z,12.03
2019-02-20T10:20:34.710Z,11.47
2019-02-20T10:23:02.537Z,14.70
2019-02-20T10:25:30.369Z,11.77
2019-02-20T10:27:58.185Z,10.30
2019-02-20T10:30:26.346Z,9.97
2019-02-20T10:32:54.129Z,9.67
2019-02-20T10:35:21.879Z,10.77
2019-02-20T10:37:49.686Z,8.67
2019-02-20T10:40:22.715Z,8.70
2019-02-20T10:42:50.524Z,9.97
2019-02-20T10:45:18.400Z,13.63
2019-02-20T10:47:46.187Z,9.67
2019-02-20T10:50:23.619Z,9.80
2019-02-20T10:52:51.430Z,8.97
2019-02-20T10:55:19.320Z,9.10
2019-02-20T10:57:47.112Z,9.37
2019-02-20T11:00:24.060Z,9.97
2019-02-20T11:02:49.678Z,8.60
2019-02-20T11:05:18.121Z,10.90
2019-02-20T11:07:45.936Z,12.47
2019-02-20T11:10:13.746Z,9.40
2019-02-20T11:12:41.550Z,10.30
2019-02-20T11:15:09.353Z,9.60
2019-02-20T11:17:37.549Z,8.67
2019-02-20T11:20:06.268Z,9.57
2019-02-20T11:22:34.096Z,8.80
2019-02-20T11:25:01.915Z,8.53
2019-02-20T11:27:29.675Z,7.73
2019-02-20T11:30:12.280Z,8.73
2019-02-20T11:32:40.078Z,8.60
2019-02-20T11:35:08.097Z,9.40
2019-02-20T11:37:35.874Z,9.27
2019-02-20T11:40:04.677Z,9.67
2019-02-20T11:42:32.433Z,9.87
2019-02-20T11:45:00.277Z,8.53
2019-02-20T11:47:28.037Z,10.57
2019-02-20T11:49:55.861Z,8.77
2019-02-20T11:52:23.707Z,9.60
2019-02-20T11:54:51.538Z,9.80
2019-02-20T11:57:19.308Z,8.83
2019-02-20T11:59:47.121Z,9.30
2019-02-20T12:02:15.003Z,9.93
2019-02-20T12:04:42.915Z,9.17
2019-02-20T12:07:10.746Z,9.40
2019-02-20T12:09:45.354Z,8.20
2019-02-20T12:12:13.233Z,7.97
2019-02-20T12:14:41.025Z,8.00
2019-02-20T12:17:08.939Z,7.60
2019-02-20T12:19:36.758Z,11.27
2019-02-20T12:22:04.548Z,7.90
2019-02-20T12:24:32.974Z,7.57
2019-02-20T12:27:00.822Z,7.90
2019-02-20T12:29:30.066Z,8.27
2019-02-20T12:31:58.206Z,7.80
2019-02-20T12:34:25.979Z,7.70
2019-02-20T12:36:53.752Z,7.20
2019-02-20T12:39:21.716Z,7.50
2019-02-20T12:41:49.500Z,7.33
2019-02-20T12:44:17.317Z,7.83
2019-02-20T12:46:45.115Z,9.50
2019-02-20T12:49:13.084Z,8.33
2019-02-20T12:51:40.899Z,8.30
2019-02-20T12:54:08.696Z,7.93
2019-02-20T12:56:43.711Z,8.87
2019-02-20T12:59:07.940Z,7.30
2019-02-20T13:01:36.052Z,6.97
2019-02-20T13:04:03.933Z,6.93
2019-02-20T13:06:31.682Z,7.10
2019-02-20T13:08:59.549Z,7.13
2019-02-20T13:11:27.441Z,9.13
2019-02-20T13:13:55.353Z,8.23
2019-02-20T13:16:23.098Z,7.37
2019-02-20T13:18:50.934Z,6.20
2019-02-20T13:21:18.716Z,6.30
2019-02-20T13:23:46.594Z,6.33
2019-02-20T13:26:14.473Z,5.57
2019-02-20T13:28:42.306Z,8.37
2019-02-20T13:31:10.143Z,7.03
2019-02-20T13:33:37.959Z,6.60
2019-02-20T13:36:05.760Z,12.97
2019-02-20T13:38:33.567Z,8.73
2019-02-20T13:41:01.445Z,10.30
2019-02-20T13:43:29.510Z,5.50
2019-02-20T13:45:57.357Z,5.97
2019-02-20T13:48:26.758Z,5.57
2019-02-20T13:50:54.580Z,5.60
2019-02-20T13:53:22.363Z,6.90
2019-02-20T13:55:50.179Z,6.40
2019-02-20T13:58:17.972Z,6.10
2019-02-20T14:00:46.273Z,5.40
2019-02-20T14:03:14.095Z,5.33
2019-02-20T14:05:41.966Z,6.07
2019-02-20T14:08:09.761Z,5.47
2019-02-20T14:10:44.071Z,4.80
2019-02-20T14:13:11.903Z,5.33
2019-02-20T14:15:39.739Z,5.00
2019-02-20T14:18:07.583Z,7.60
2019-02-20T14:20:35.449Z,5.33
2019-02-20T14:23:03.218Z,4.90
2019-02-20T14:25:31.061Z,4.37
2019-02-20T14:27:58.870Z,4.03
2019-02-20T14:30:26.791Z,5.37
2019-02-20T14:32:54.602Z,4.70
2019-02-20T14:35:22.602Z,4.47
2019-02-20T14:37:50.449Z,4.30
2019-02-20T14:40:18.417Z,5.20
2019-02-20T14:42:46.205Z,5.10
2019-02-20T14:45:15.011Z,5.60
2019-02-20T14:47:42.789Z,6.57
2019-02-20T14:50:10.765Z,5.37
2019-02-20T14:52:38.885Z,5.30
2019-02-20T14:55:07.462Z,4.23
2019-02-20T14:57:35.376Z,3.50
2019-02-20T15:00:03.745Z,3.73
2019-02-20T15:02:31.500Z,3.90
2019-02-20T15:04:59.328Z,4.33
2019-02-20T15:07:27.152Z,3.40
2019-02-20T15:09:55.484Z,5.07
2019-02-20T15:12:23.317Z,6.73
2019-02-20T15:14:51.133Z,5.13
2019-02-20T15:17:18.916Z,11.87
2019-02-20T15:19:46.791Z,9.40
2019-02-20T15:22:14.610Z,3.60
2019-02-20T15:24:42.431Z,8.50
2019-02-20T15:27:10.729Z,7.50
2019-02-20T15:29:38.550Z,15.73
2019-02-20T15:32:06.300Z,9.23
2019-02-20T15:34:34.102Z,6.90
2019-02-20T15:37:03.208Z,7.43
2019-02-20T15:39:34.894Z,5.60
2019-02-20T15:42:08.236Z,4.87
2019-02-20T15:44:36.041Z,5.10
2019-02-20T15:47:03.888Z,4.67
2019-02-20T15:49:31.722Z,4.80
2019-02-20T15:52:01.351Z,4.13
2019-02-20T15:54:29.358Z,6.17
2019-02-20T15:56:57.481Z,5.83
2019-02-20T15:59:25.747Z,4.40
2019-02-20T16:01:53.596Z,5.17
2019-02-20T16:04:21.820Z,6.33
2019-02-20T16:06:49.925Z,7.80
2019-02-20T16:09:21.361Z,5.17
2019-02-20T16:11:54.856Z,5.13
2019-02-20T16:14:31.712Z,4.60
2019-02-20T16:17:00.644Z,9.67
2019-02-20T16:19:31.648Z,5.27
2019-02-20T16:22:00.231Z,5.50
2019-02-20T16:24:29.244Z,5.90
2019-02-20T16:26:57.569Z,6.20
2019-02-20T16:29:25.876Z,6.03
2019-02-20T16:31:53.715Z,5.93
2019-02-20T16:34:21.479Z,5.17
2019-02-20T16:36:49.371Z,5.17
2019-02-20T16:39:17.288Z,5.50
2019-02-20T16:41:45.123Z,5.70
2019-02-20T16:44:12.911Z,6.10
2019-02-20T16:46:41.061Z,5.97
2019-02-20T16:49:08.918Z,6.20
2019-02-20T16:51:36.708Z,7.23
2019-02-20T16:54:05.029Z,7.20
2019-02-20T16:56:32.972Z,9.70
2019-02-20T16:59:00.850Z,13.90
2019-02-20T17:01:29.809Z,10.47
2019-02-20T17:03:58.100Z,11.47
2019-02-20T17:06:25.905Z,11.50
2019-02-20T17:08:53.714Z,10.70
2019-02-20T17:11:21.492Z,8.40
2019-02-20T17:13:49.284Z,7.63
2019-02-20T17:16:17.477Z,7.40
2019-02-20T17:18:45.351Z,8.90
2019-02-20T17:21:13.467Z,7.93
2019-02-20T17:23:41.307Z,7.50
2019-02-20T17:26:09.178Z,9.43
2019-02-20T17:28:37.155Z,10.33
2019-02-20T17:31:05.263Z,10.30
2019-02-20T17:33:33.079Z,9.30
2019-02-20T17:36:00.924Z,8.23
2019-02-20T17:38:28.860Z,7.40
2019-02-20T17:40:56.723Z,7.20
2019-02-20T17:43:24.564Z,6.93
2019-02-20T17:45:52.349Z,7.43
2019-02-20T17:48:20.182Z,7.40
2019-02-20T17:50:48.056Z,7.80
2019-02-20T17:53:15.872Z,9.73
2019-02-20T17:55:43.975Z,8.63
2019-02-20T17:58:15.265Z,10.90
2019-02-20T18:00:41.610Z,11.53
2019-02-20T18:03:09.697Z,11.43
2019-02-20T18:05:37.531Z,9.70
2019-02-20T18:08:05.301Z,10.10
2019-02-20T18:10:33.389Z,9.57
2019-02-20T18:13:01.236Z,8.87
2019-02-20T18:15:29.090Z,8.77
2019-02-20T18:17:56.877Z,10.50
2019-02-20T18:20:25.225Z,15.57
2019-02-20T18:22:53.193Z,17.33
2019-02-20T18:25:20.989Z,19.67
2019-02-20T18:27:48.795Z,16.87
2019-02-20T18:30:16.607Z,15.97
2019-02-20T18:32:44.470Z,15.17
2019-02-20T18:35:12.306Z,15.97
2019-02-20T18:37:40.095Z,15.43
2019-02-20T18:40:09.009Z,14.67
2019-02-20T18:42:36.956Z,15.20
2019-02-20T18:45:06.815Z,18.63
2019-02-20T18:47:34.659Z,14.60
2019-02-20T18:50:09.641Z,17.90
2019-02-20T18:52:37.433Z,16.93
2019-02-20T18:55:08.827Z,20.57
2019-02-20T18:57:36.659Z,18.97
2019-02-20T19:00:08.949Z,15.47
2019-02-20T19:02:36.829Z,16.20
2019-02-20T19:05:05.341Z,15.23
2019-02-20T19:07:33.121Z,16.07
2019-02-20T19:10:00.929Z,16.50
2019-02-20T19:13:07.568Z,15.93
2019-02-20T19:16:06.956Z,14.33
2019-02-20T19:19:23.683Z,15.37
2019-02-20T19:22:46.648Z,13.80
2019-02-20T19:26:26.064Z,17.90
2019-02-20T19:30:04.942Z,20.23
2019-02-20T19:33:06.663Z,17.87
2019-02-20T19:36:37.692Z,19.30
2019-02-20T19:39:39.969Z,20.07
2019-02-20T19:43:07.919Z,21.70
2019-02-20T19:46:33.177Z,19.03
2019-02-20T19:49:44.402Z,17.60
2019-02-20T19:52:59.311Z,19.13
2019-02-20T19:56:10.759Z,14.83
2019-02-20T19:59:47.503Z,13.80
2019-02-20T20:03:16.359Z,14.13
2019-02-20T20:06:47.207Z,14.87
2019-02-20T20:10:34.301Z,22.47
2019-02-20T20:13:52.149Z,16.10
2019-02-20T20:17:08.549Z,10.23
2019-02-20T20:20:36.727Z,13.23
2019-02-20T20:23:51.636Z,22.50
2019-02-20T20:26:53.167Z,15.20
2019-02-20T20:30:16.064Z,16.80
2019-02-20T20:33:03.503Z,11.50
2019-02-20T20:36:32.154Z,12.67
2019-02-20T20:40:16.243Z,17.17
2019-02-20T20:43:52.858Z,26.47
2019-02-20T20:46:42.106Z,22.87
2019-02-20T20:50:04.070Z,28.97
2019-02-20T20:53:16.279Z,11.23
2019-02-20T20:56:57.715Z,10.27
2019-02-20T21:00:26.452Z,10.83
2019-02-20T21:03:02.295Z,11.60
2019-02-20T21:06:30.615Z,15.53
2019-02-20T21:10:13.010Z,11.90
2019-02-20T21:13:53.502Z,21.97
2019-02-20T21:17:36.285Z,11.03
2019-02-20T21:21:05.299Z,19.77
2019-02-20T21:24:26.541Z,57.10
2019-02-20T21:27:37.558Z,44.63
2019-02-20T21:31:01.107Z,28.27
2019-02-20T21:34:09.934Z,28.37
2019-02-20T21:37:36.586Z,15.77
2019-02-20T21:40:47.694Z,30.17
2019-02-20T21:44:22.561Z,20.97
2019-02-20T21:47:26.261Z,15.63
2019-02-20T21:50:14.113Z,14.10
2019-02-20T21:54:02.471Z,15.73
2019-02-20T21:57:10.140Z,9.40
2019-02-20T22:00:34.925Z,19.13
2019-02-20T22:03:50.722Z,13.70
2019-02-20T22:07:05.529Z,11.47
2019-02-20T22:09:58.380Z,9.90
2019-02-20T22:13:21.793Z,9.50
2019-02-20T22:16:47.835Z,8.47
2019-02-20T22:20:31.064Z,7.70
2019-02-20T22:23:57.485Z,9.10
2019-02-20T22:26:59.375Z,9.97
2019-02-20T22:30:36.116Z,9.83
2019-02-20T22:33:32.905Z,11.30
2019-02-20T22:36:52.068Z,10.33
2019-02-20T22:40:05.306Z,9.83
2019-02-20T22:43:44.233Z,11.73
2019-02-20T22:46:50.832Z,15.57
2019-02-20T22:49:56.846Z,11.47
2019-02-20T22:52:40.049Z,10.27
2019-02-20T22:56:33.343Z,11.07
2019-02-20T23:00:02.666Z,12.50
2019-02-20T23:03:25.275Z,12.03
2019-02-20T23:06:52.491Z,13.30
2019-02-20T23:09:33.542Z,14.70
2019-02-20T23:12:54.963Z,12.70
2019-02-20T23:15:22.760Z,11.93
2019-02-20T23:17:50.557Z,9.73
2019-02-20T23:20:28.849Z,11.17
2019-02-20T23:22:57.159Z,9.37
2019-02-20T23:25:25.313Z,9.27
2019-02-20T23:27:53.180Z,9.70
2019-02-20T23:30:21.052Z,9.07
2019-02-20T23:32:48.846Z,11.87
2019-02-20T23:35:16.637Z,11.27
2019-02-20T23:37:44.409Z,10.00
2019-02-20T23:40:12.212Z,10.53
2019-02-20T23:42:40.019Z,10.90
2019-02-20T23:45:08.010Z,9.97
2019-02-20T23:47:35.793Z,10.10
2019-02-20T23:50:03.974Z,10.10
2019-02-20T23:52:31.754Z,11.00
2019-02-20T23:54:59.577Z,11.13
2019-02-20T23:57:27.398Z,10.83
2019-02-20T23:59:55.456Z,9.30
